Time;durP1;ratioP1;P1;durP2;ratioP2;P2;SDS_P1;SDS_P2;PMS_P1;PMS_P2;Temp;Humidity;BMP_temperature;BMP_pressure;BME280_temperature;BME280_humidity;BME280_pressure;Samples;Min_cycle;Max_cycle;Signal;HPM_P1;HPM_P2
2022/09/17 10:12:20;;;;;;;7.40;6.80;;;;;;;10.80;100.00;96601.75;5069382;28;20547;-57
2022/09/17 10:14:46;;;;;;;15.93;14.77;;;;;;;10.86;100.00;96605.28;5067427;28;20209;-55
2022/09/17 10:17:14;;;;;;;14.27;13.23;;;;;;;11.20;100.00;96610.38;5070159;28;20656;-57
2022/09/17 10:19:40;;;;;;;8.80;8.00;;;;;;;11.66;97.84;96598.06;5071334;28;20218;-58
2022/09/17 10:22:41;;;;;;;13.23;12.17;;;;;;;11.60;94.74;96599.81;5069574;28;20170;-53
2022/09/17 10:25:30;;;;;;;8.10;7.23;;;;;;;12.14;92.95;96594.91;5053882;28;20597;-54
2022/09/17 10:27:58;;;;;;;9.97;8.87;;;;;;;12.73;87.50;96590.72;5054020;28;20649;-56
2022/09/17 10:30:24;;;;;;;22.43;20.87;;;;;;;13.09;84.63;96589.28;5062393;28;20549;-56
2022/09/17 10:33:13;;;;;;;17.67;16.37;;;;;;;12.49;83.23;96600.66;5055993;28;20180;-60
2022/09/17 10:35:39;;;;;;;9.93;9.03;;;;;;;12.78;83.96;96589.97;5052555;28;20220;-60
2022/09/17 10:38:04;;;;;;;11.00;10.30;;;;;;;12.71;84.81;96587.50;5065840;28;20634;-58
2022/09/17 10:40:31;;;;;;;11.37;10.43;;;;;;;12.86;82.46;96587.72;5050522;28;20674;-59
2022/09/17 10:43:13;;;;;;;11.20;10.17;;;;;;;12.72;82.25;96573.34;5053232;28;20220;-61
2022/09/17 10:45:43;;;;;;;11.67;10.60;;;;;;;12.86;81.34;96592.97;5065373;28;20233;-61
2022/09/17 10:48:19;;;;;;;24.73;23.23;;;;;;;12.44;78.27;96581.38;5054698;28;20196;-63
2022/09/17 10:50:52;;;;;;;9.87;8.87;;;;;;;12.58;79.85;96579.22;5067411;28;20197;-59
2022/09/17 10:53:20;;;;;;;9.67;8.80;;;;;;;12.42;80.87;96581.66;5067014;28;20177;-63
2022/09/17 10:55:54;;;;;;;10.83;10.03;;;;;;;12.20;79.33;96583.44;5065888;28;20205;-63
2022/09/17 10:58:37;;;;;;;9.80;8.00;;;;;;;12.64;79.26;96583.50;5049118;28;20186;-60
2022/09/17 11:01:31;;;;;;;9.90;9.17;;;;;;;12.90;77.24;96569.59;5064584;28;20650;-60
2022/09/17 11:04:02;;;;;;;22.23;20.67;;;;;;;13.05;76.22;96580.28;5059251;28;20198;-62
2022/09/17 11:06:36;;;;;;;33.87;31.83;;;;;;;12.99;74.91;96572.56;5058791;28;20627;-57
2022/09/17 11:09:22;;;;;;;36.90;34.60;;;;;;;12.94;74.28;96570.69;5066829;28;20188;-59
2022/09/17 11:12:15;;;;;;;19.00;17.80;;;;;;;13.01;72.64;96560.78;5079249;28;20264;-58
2022/09/17 11:15:00;;;;;;;36.00;33.63;;;;;;;12.45;72.70;96548.81;5069789;28;20247;-58
2022/09/17 11:17:45;;;;;;;22.30;20.93;;;;;;;12.86;72.55;96565.88;5083349;28;20180;-56
2022/09/17 12:11:56;;;;;;;37.37;35.00;;;;;;;14.07;59.99;96522.19;5152234;23;20759;-65
2022/09/17 12:15:06;;;;;;;23.87;22.60;;;;;;;13.92;61.47;96526.56;4978013;28;20240;-65
2022/09/17 12:17:53;;;;;;;35.27;33.30;;;;;;;14.17;60.24;96524.09;4981437;28;20176;-65
2022/09/17 12:20:28;;;;;;;38.07;35.53;;;;;;;14.11;64.15;96522.47;4992573;28;20180;-65
2022/09/17 12:22:57;;;;;;;132.03;124.87;;;;;;;13.49;67.58;96524.91;4987651;28;20172;-65
2022/09/17 12:25:26;;;;;;;36.03;33.93;;;;;;;13.05;73.87;96527.66;4993487;28;20267;-65
2022/09/17 12:28:26;;;;;;;21.17;19.87;;;;;;;12.81;75.86;96519.28;4993998;28;20196;-65
2022/09/17 12:31:01;;;;;;;8.53;7.97;;;;;;;12.80;76.26;96522.16;4939841;28;20228;-65
2022/09/17 12:33:29;;;;;;;37.57;35.30;;;;;;;12.42;78.20;96530.91;4980173;28;20326;-65
2022/09/17 12:36:01;;;;;;;20.10;18.73;;;;;;;12.48;81.57;96537.81;4974834;28;20243;-65
2022/09/17 12:38:45;;;;;;;12.43;11.30;;;;;;;12.58;85.96;96542.41;4975330;28;20184;-65
2022/09/17 12:41:25;;;;;;;7.33;6.93;;;;;;;12.39;82.88;96521.66;4987708;28;20189;-65
2022/09/17 12:44:06;;;;;;;10.47;9.77;;;;;;;12.60;83.15;96522.69;4986426;28;20242;-65
2022/09/17 12:46:34;;;;;;;7.30;6.80;;;;;;;12.62;79.50;96525.09;4975089;28;20189;-66
2022/09/17 12:49:16;;;;;;;8.40;7.70;;;;;;;12.61;80.67;96520.88;4985440;28;20189;-65
2022/09/17 12:52:13;;;;;;;7.33;6.83;;;;;;;12.69;80.98;96523.06;4974731;28;20223;-65
2022/09/17 12:55:17;;;;;;;9.17;8.67;;;;;;;12.41;80.64;96524.06;4973995;28;20263;-69
2022/09/17 12:57:49;;;;;;;8.87;8.40;;;;;;;11.91;92.69;96529.44;4895210;29;20210;-66
2022/09/17 13:00:16;;;;;;;12.03;11.30;;;;;;;11.89;92.55;96513.91;4896172;29;20210;-66
2022/09/17 13:02:49;;;;;;;12.70;11.70;;;;;;;11.82;89.53;96534.28;4894687;29;20663;-66
2022/09/17 13:05:30;;;;;;;13.43;12.53;;;;;;;11.81;87.38;96545.84;4888671;29;20199;-66
2022/09/17 13:08:38;;;;;;;7.27;6.60;;;;;;;11.92;90.50;96542.31;4876935;29;20188;-66
2022/09/17 13:11:23;;;;;;;5.00;4.70;;;;;;;11.80;89.21;96539.00;4868350;29;20235;-66
2022/09/17 13:13:53;;;;;;;14.37;13.57;;;;;;;11.58;96.78;96548.59;4877572;29;20195;-66
2022/09/17 13:17:03;;;;;;;17.10;15.77;;;;;;;11.12;100.00;96553.06;4884030;29;20232;-66
2022/09/17 13:19:43;;;;;;;15.33;14.13;;;;;;;10.84;100.00;96574.03;4892083;29;20193;-66
2022/09/17 13:22:16;;;;;;;17.17;16.10;;;;;;;10.80;100.00;96571.09;4895255;29;20207;-66
2022/09/17 13:24:45;;;;;;;26.17;24.63;;;;;;;10.79;100.00;96579.97;4895011;29;20184;-67
2022/09/17 13:27:25;;;;;;;25.60;24.20;;;;;;;10.73;100.00;96580.91;4883034;29;20187;-66
2022/09/17 13:29:53;;;;;;;18.47;17.47;;;;;;;10.54;100.00;96568.16;4983932;28;20186;-68
2022/09/17 13:32:34;;;;;;;22.27;21.00;;;;;;;10.93;100.00;96566.56;4992398;28;20180;-66
2022/09/17 13:35:05;;;;;;;19.53;18.23;;;;;;;10.72;100.00;96578.50;4976851;28;20188;-66
2022/09/17 13:37:33;;;;;;;19.43;18.17;;;;;;;11.03;100.00;96572.03;4993030;28;20192;-66
2022/09/17 13:40:00;;;;;;;20.83;19.73;;;;;;;10.98;100.00;96566.69;4992698;28;20191;-66
2022/09/17 13:42:28;;;;;;;13.50;12.73;;;;;;;11.14;100.00;96560.69;4988705;28;20176;-65
2022/09/17 13:45:09;;;;;;;13.93;13.13;;;;;;;11.06;100.00;96555.81;4972557;28;20582;-66
2022/09/17 13:47:46;;;;;;;27.47;26.07;;;;;;;11.00;100.00;96557.56;4986967;28;20266;-66
2022/09/17 13:50:31;;;;;;;29.30;27.73;;;;;;;11.17;100.00;96555.78;4992593;28;20242;-66
2022/09/17 13:53:17;;;;;;;21.83;20.63;;;;;;;11.34;100.00;96558.41;4983467;28;20185;-66
2022/09/17 13:55:47;;;;;;;22.17;20.90;;;;;;;11.50;100.00;96544.50;4974147;28;20227;-66
2022/09/17 13:58:25;;;;;;;24.60;23.33;;;;;;;11.46;100.00;96558.34;4974220;28;20232;-66
2022/09/17 14:00:50;;;;;;;13.07;12.30;;;;;;;11.54;100.00;96550.06;4988420;28;20231;-66
2022/09/17 14:03:37;;;;;;;39.17;37.07;;;;;;;11.43;99.41;96558.81;4992404;28;20535;-66
2022/09/17 14:06:08;;;;;;;25.57;24.13;;;;;;;11.56;98.43;96561.94;4992576;28;20176;-66
2022/09/17 14:08:42;;;;;;;43.90;41.60;;;;;;;11.91;99.78;96553.06;4987120;28;20239;-66
2022/09/17 14:11:27;;;;;;;16.17;15.17;;;;;;;11.93;98.04;96548.34;4979499;28;20301;-66
2022/09/17 14:14:04;;;;;;;10.83;10.23;;;;;;;12.12;96.60;96554.16;4974658;28;20594;-66
2022/09/17 14:16:45;;;;;;;8.07;7.47;;;;;;;12.06;97.08;96561.94;4986159;28;20585;-66
2022/09/17 14:19:28;;;;;;;7.63;7.03;;;;;;;12.13;95.73;96558.38;4992228;28;20254;-66
2022/09/17 14:21:55;;;;;;;6.77;6.27;;;;;;;12.19;94.14;96555.56;4992720;28;20241;-66
2022/09/17 14:24:24;;;;;;;9.43;8.93;;;;;;;12.26;93.50;96560.66;4992122;28;20563;-66
2022/09/17 14:27:22;;;;;;;8.13;7.53;;;;;;;12.38;92.05;96559.50;4981294;28;20708;-66
2022/09/17 14:30:05;;;;;;;9.80;9.07;;;;;;;12.19;91.42;96563.47;4973525;28;20661;-67
2022/09/17 14:32:50;;;;;;;8.50;8.03;;;;;;;12.14;92.84;96566.00;4980222;28;20258;-66
2022/09/17 14:35:20;;;;;;;24.07;22.70;;;;;;;12.29;88.45;96560.16;4979800;28;20638;-66
2022/09/17 14:37:52;;;;;;;12.77;12.00;;;;;;;12.35;87.98;96557.38;4989915;28;20757;-66
2022/09/17 14:40:19;;;;;;;14.13;13.30;;;;;;;12.43;88.60;96562.19;4979838;28;20216;-67
2022/09/17 14:42:48;;;;;;;15.13;14.17;;;;;;;12.45;88.40;96554.06;4973568;28;20741;-67
2022/09/17 14:45:18;;;;;;;9.27;8.80;;;;;;;12.43;88.61;96556.13;4974773;28;20185;-66
2022/09/17 14:47:43;;;;;;;14.03;13.23;;;;;;;12.45;87.66;96554.06;4973264;28;20236;-67
2022/09/17 14:50:25;;;;;;;7.57;7.10;;;;;;;12.71;86.35;96552.53;4976842;28;20184;-67
2022/09/17 14:52:53;;;;;;;6.93;6.30;;;;;;;12.82;86.99;96552.41;4971237;28;20644;-67
2022/09/17 14:55:22;;;;;;;16.03;15.13;;;;;;;12.92;87.07;96557.00;4973274;28;20259;-67
2022/09/17 14:58:03;;;;;;;27.50;25.70;;;;;;;12.99;85.62;96552.31;4973392;28;20189;-67
2022/09/17 15:00:34;;;;;;;32.00;30.03;;;;;;;12.88;84.63;96554.06;4980506;28;20354;-66
2022/09/17 15:03:00;;;;;;;23.43;22.23;;;;;;;13.02;85.28;96554.47;4995599;28;20628;-67
2022/09/17 15:05:30;;;;;;;33.43;31.47;;;;;;;13.07;85.89;96553.72;4979459;28;20296;-67
2022/09/17 15:08:16;;;;;;;32.97;31.13;;;;;;;12.95;85.97;96543.34;4995987;28;20223;-67
2022/09/17 15:10:52;;;;;;;21.63;20.53;;;;;;;12.88;85.12;96550.63;4977280;28;20196;-66
2022/09/17 15:13:22;;;;;;;23.33;22.20;;;;;;;12.83;85.35;96553.19;4994798;28;20655;-67
2022/09/17 15:15:54;;;;;;;33.53;31.80;;;;;;;12.74;88.11;96552.06;4995873;28;20200;-66
2022/09/17 15:18:21;;;;;;;25.77;24.37;;;;;;;12.99;84.46;96543.63;4993693;28;20240;-67
2022/09/17 15:20:47;;;;;;;18.30;17.17;;;;;;;12.86;85.89;96547.47;4976125;28;20641;-67
2022/09/17 15:23:16;;;;;;;23.13;21.83;;;;;;;12.95;85.80;96538.09;4976259;28;20239;-67
2022/09/17 15:25:43;;;;;;;23.97;22.47;;;;;;;12.73;85.92;96545.19;4976373;28;20247;-66
2022/09/17 15:28:26;;;;;;;22.77;21.57;;;;;;;12.72;84.21;96533.09;4977426;28;20177;-66
2022/09/17 15:30:51;;;;;;;30.43;28.83;;;;;;;12.68;86.07;96540.69;4975362;28;20215;-66
2022/09/17 15:33:18;;;;;;;25.00;23.40;;;;;;;12.52;85.09;96538.13;4989044;28;20546;-67
2022/09/17 15:35:59;;;;;;;30.40;28.77;;;;;;;12.45;85.15;96540.91;4995282;28;20275;-67
2022/09/17 15:38:29;;;;;;;28.70;27.00;;;;;;;12.32;86.70;96549.16;4995275;28;20602;-66
2022/09/17 15:41:28;;;;;;;11.27;10.57;;;;;;;12.46;87.12;96545.94;4995147;28;20191;-67
2022/09/17 15:44:04;;;;;;;24.97;23.50;;;;;;;12.19;84.80;96549.53;4995513;28;20210;-66
2022/09/17 15:46:30;;;;;;;25.57;24.03;;;;;;;12.33;83.55;96537.59;4981633;28;20173;-66
2022/09/17 15:49:03;;;;;;;25.20;23.57;;;;;;;12.52;83.15;96540.75;4977529;28;20185;-66
2022/09/17 15:51:31;;;;;;;24.90;23.43;;;;;;;12.63;82.64;96543.25;4994942;28;20605;-66
2022/09/17 15:54:03;;;;;;;30.23;28.53;;;;;;;12.65;80.99;96548.28;4977755;28;20212;-66
2022/09/17 15:56:35;;;;;;;40.13;37.83;;;;;;;12.60;81.27;96545.56;4981275;28;20188;-66
2022/09/17 15:59:01;;;;;;;37.87;35.53;;;;;;;12.45;81.86;96552.22;4994061;28;20176;-66
2022/09/17 16:01:32;;;;;;;43.20;40.70;;;;;;;12.54;80.95;96542.06;4989824;28;20242;-66
2022/09/17 16:03:57;;;;;;;34.93;32.87;;;;;;;12.58;81.07;96545.03;4994156;28;20195;-66
2022/09/17 16:06:25;;;;;;;31.63;29.73;;;;;;;12.62;82.40;96541.66;4994776;28;20182;-66
2022/09/17 16:08:56;;;;;;;49.87;47.17;;;;;;;12.41;82.22;96539.81;4994498;28;20238;-67
2022/09/17 16:11:27;;;;;;;28.37;26.67;;;;;;;12.20;83.04;96551.91;4982922;28;20693;-66
2022/09/17 16:13:54;;;;;;;7.63;7.23;;;;;;;12.15;84.79;96551.81;4975740;28;20177;-66
2022/09/17 16:16:22;;;;;;;4.77;4.47;;;;;;;12.04;85.15;96545.63;4994116;28;20192;-66
2022/09/17 16:18:49;;;;;;;5.00;4.60;;;;;;;12.10;84.45;96543.88;4994691;28;20267;-67
2022/09/17 16:21:16;;;;;;;25.00;23.40;;;;;;;12.00;82.26;96552.41;4992067;28;20192;-66
2022/09/17 16:23:42;;;;;;;16.20;15.10;;;;;;;12.17;82.52;96541.88;4979034;28;20258;-66
2022/09/17 16:26:13;;;;;;;19.53;18.40;;;;;;;12.13;81.94;96545.22;4975418;28;20208;-67
2022/09/17 16:28:39;;;;;;;24.07;22.43;;;;;;;12.21;82.39;96542.97;4975465;28;20180;-66
2022/09/17 16:31:05;;;;;;;27.77;26.23;;;;;;;12.17;81.67;96551.59;4975528;28;20530;-66
2022/09/17 16:33:31;;;;;;;26.43;24.83;;;;;;;12.29;82.17;96549.66;4994248;28;20318;-66
2022/09/17 16:35:57;;;;;;;29.70;28.00;;;;;;;12.40;80.92;96557.44;4991947;28;20185;-66
2022/09/17 16:38:23;;;;;;;25.03;23.63;;;;;;;12.44;81.04;96558.53;4994369;28;20188;-66
2022/09/17 16:40:48;;;;;;;25.07;23.50;;;;;;;12.47;80.74;96560.69;4993941;28;20192;-66
2022/09/17 16:43:14;;;;;;;30.87;29.13;;;;;;;12.33;81.01;96553.38;4994111;28;20191;-66
2022/09/17 16:45:39;;;;;;;28.33;26.73;;;;;;;12.43;80.89;96556.94;4992756;28;20184;-67
2022/09/17 16:48:05;;;;;;;30.73;28.93;;;;;;;12.19;81.55;96558.19;4986146;28;20235;-66
2022/09/17 16:50:31;;;;;;;113.90;27.23;;;;;;;12.58;88.92;96556.34;4986297;28;20215;-66
2022/09/17 16:52:57;;;;;;;13.53;12.43;;;;;;;12.10;82.75;96559.63;4974873;28;20641;-67
2022/09/17 16:55:22;;;;;;;23.87;22.23;;;;;;;12.19;82.65;96554.78;4975250;28;20538;-67
2022/09/17 16:57:48;;;;;;;26.90;25.07;;;;;;;12.02;82.85;96557.44;4979089;28;20230;-67
2022/09/17 17:00:18;;;;;;;16.43;15.40;;;;;;;12.19;82.94;96552.94;4992777;28;20699;-67
2022/09/17 17:02:55;;;;;;;8.90;8.33;;;;;;;11.97;83.72;96552.09;4988659;28;20210;-69
2022/09/17 17:05:21;;;;;;;7.10;6.60;;;;;;;11.89;83.33;96550.66;4975086;28;20597;-70
2022/09/17 17:07:47;;;;;;;5.60;5.00;;;;;;;11.91;83.64;96555.69;4974460;28;20180;-67
2022/09/17 17:10:13;;;;;;;5.77;4.97;;;;;;;11.89;84.19;96560.38;4980036;28;20715;-68
2022/09/17 17:12:39;;;;;;;6.30;5.80;;;;;;;11.87;84.07;96559.84;4992425;28;20228;-67
2022/09/17 17:15:05;;;;;;;10.80;9.97;;;;;;;11.82;85.00;96555.28;4985441;28;20203;-66
2022/09/17 17:17:31;;;;;;;12.83;12.03;;;;;;;11.87;85.96;96571.09;4975669;28;20192;-67
2022/09/17 17:19:57;;;;;;;12.40;11.40;;;;;;;11.76;92.47;96574.63;4973962;28;20668;-67
2022/09/17 17:22:22;;;;;;;10.33;9.63;;;;;;;11.43;98.64;96583.22;4975530;28;20197;-68
2022/09/17 17:24:48;;;;;;;10.83;9.83;;;;;;;11.27;100.00;96581.38;4988025;28;20184;-67
2022/09/17 17:27:13;;;;;;;10.23;9.63;;;;;;;11.02;100.00;96571.25;4990876;28;20216;-69
2022/09/17 17:29:39;;;;;;;21.77;20.43;;;;;;;10.82;100.00;96574.25;4991255;28;20528;-69
2022/09/17 17:32:04;;;;;;;34.30;32.13;;;;;;;10.84;100.00;96572.22;4988421;28;20205;-68
2022/09/17 17:34:30;;;;;;;22.87;21.47;;;;;;;10.79;100.00;96582.59;4984112;28;20197;-68
2022/09/17 17:36:57;;;;;;;28.83;27.27;;;;;;;10.64;100.00;96574.44;4981621;28;20185;-68
2022/09/17 17:39:22;;;;;;;21.37;20.13;;;;;;;10.54;100.00;96566.34;4974340;28;20185;-68
2022/09/17 17:41:47;;;;;;;9.93;8.77;;;;;;;10.62;100.00;96570.44;4983722;28;20630;-68
2022/09/17 17:44:13;;;;;;;12.63;11.70;;;;;;;10.50;100.00;96578.31;4992693;28;20223;-68
2022/09/17 17:46:39;;;;;;;14.90;13.83;;;;;;;10.59;100.00;96576.94;4992981;28;20188;-70
2022/09/17 17:49:05;;;;;;;13.50;12.67;;;;;;;10.39;100.00;96587.81;4976098;28;20315;-69
2022/09/17 17:51:31;;;;;;;13.30;11.90;;;;;;;10.33;100.00;96606.25;4986224;28;20193;-67
2022/09/17 17:53:57;;;;;;;15.00;13.90;;;;;;;10.27;100.00;96612.41;4975531;28;20188;-66
2022/09/17 17:56:22;;;;;;;10.73;9.93;;;;;;;10.26;100.00;96622.09;4984364;28;20184;-66
2022/09/17 17:58:53;;;;;;;10.03;9.17;;;;;;;10.17;100.00;96620.84;4992733;28;20279;-66
2022/09/17 18:01:21;;;;;;;9.77;8.90;;;;;;;9.94;100.00;96608.50;4988150;28;20180;-66
2022/09/17 18:03:47;;;;;;;8.03;7.43;;;;;;;9.94;100.00;96607.69;4973648;28;20173;-66
2022/09/17 18:06:12;;;;;;;15.43;14.17;;;;;;;9.96;100.00;96608.28;4976416;28;20660;-65
2022/09/17 18:08:40;;;;;;;18.17;16.77;;;;;;;9.91;100.00;96608.97;4985959;28;20184;-65
2022/09/17 18:11:07;;;;;;;25.63;23.83;;;;;;;9.87;100.00;96617.47;4979966;28;20665;-66
2022/09/17 18:13:34;;;;;;;28.33;26.70;;;;;;;9.87;100.00;96610.41;4992202;28;20199;-67
2022/09/17 18:16:01;;;;;;;30.97;29.17;;;;;;;9.73;100.00;96611.66;4992322;28;20175;-65
2022/09/17 18:18:32;;;;;;;33.43;31.50;;;;;;;9.78;100.00;96614.41;4992138;28;20574;-65
2022/09/17 18:21:05;;;;;;;21.47;20.03;;;;;;;9.77;100.00;96617.25;4991388;28;20259;-66
2022/09/17 18:23:30;;;;;;;18.13;16.93;;;;;;;9.73;100.00;96616.09;4973530;28;20695;-65
2022/09/17 18:25:58;;;;;;;15.80;14.43;;;;;;;9.70;100.00;96627.00;4973671;28;20185;-65
2022/09/17 18:28:24;;;;;;;14.90;13.97;;;;;;;9.60;100.00;96628.34;4984572;28;20675;-65
2022/09/17 18:30:49;;;;;;;14.10;13.20;;;;;;;9.55;100.00;96627.44;4974689;28;20525;-65
2022/09/17 18:33:24;;;;;;;15.07;13.97;;;;;;;9.45;100.00;96629.78;4992809;28;20316;-65
2022/09/17 18:35:55;;;;;;;11.23;10.37;;;;;;;9.46;100.00;96629.59;4994340;28;20190;-66
2022/09/17 18:38:22;;;;;;;11.83;10.90;;;;;;;9.51;100.00;96626.28;4979439;28;20538;-65
2022/09/17 18:40:48;;;;;;;9.60;8.80;;;;;;;9.53;100.00;96634.69;4989010;28;20271;-65
2022/09/17 18:43:13;;;;;;;10.13;9.57;;;;;;;9.43;100.00;96640.47;4977277;28;20271;-65
2022/09/17 18:45:38;;;;;;;10.07;9.37;;;;;;;9.39;100.00;96638.53;4980163;28;20540;-66
2022/09/17 18:48:05;;;;;;;8.70;8.10;;;;;;;9.38;100.00;96639.53;4989736;28;20188;-65
2022/09/17 18:50:30;;;;;;;9.73;9.07;;;;;;;9.41;100.00;96633.88;4991264;28;20624;-65
2022/09/17 18:52:55;;;;;;;8.83;8.33;;;;;;;9.33;100.00;96636.81;4984085;28;20275;-65
2022/09/17 18:55:21;;;;;;;7.70;7.30;;;;;;;9.39;100.00;96634.09;4985687;28;20268;-65
2022/09/17 18:57:50;;;;;;;8.43;7.73;;;;;;;9.36;100.00;96639.00;4992659;28;20193;-64
2022/09/17 19:00:20;;;;;;;10.80;10.13;;;;;;;9.30;100.00;96639.88;4990970;28;20177;-65
2022/09/17 19:02:49;;;;;;;8.73;8.13;;;;;;;9.40;100.00;96646.16;4976725;28;20185;-65
2022/09/17 19:05:16;;;;;;;8.37;7.87;;;;;;;9.42;100.00;96654.56;4985300;28;20177;-66
2022/09/17 19:07:45;;;;;;;9.00;8.47;;;;;;;9.42;100.00;96672.88;4978401;28;20202;-65
2022/09/17 19:10:12;;;;;;;8.63;8.07;;;;;;;9.38;100.00;96679.59;4985351;28;20176;-65
2022/09/17 19:12:37;;;;;;;10.03;9.23;;;;;;;9.24;100.00;96677.38;4980074;28;20295;-65
2022/09/17 19:15:03;;;;;;;8.27;7.63;;;;;;;9.08;100.00;96673.53;4976180;28;20588;-65
2022/09/17 19:17:29;;;;;;;8.27;7.77;;;;;;;9.03;100.00;96702.13;4979566;28;20704;-66
2022/09/17 19:19:54;;;;;;;20.80;19.03;;;;;;;8.69;100.00;96734.88;4976634;28;20184;-65
2022/09/17 19:22:19;;;;;;;19.07;18.03;;;;;;;8.20;100.00;96736.44;4980879;28;20672;-64
2022/09/17 19:24:45;;;;;;;23.47;22.17;;;;;;;7.90;100.00;96717.19;4991898;28;20508;-64
2022/09/17 19:27:10;;;;;;;18.00;16.87;;;;;;;7.62;100.00;96695.91;4995198;28;20212;-65
2022/09/17 19:29:35;;;;;;;6.70;6.30;;;;;;;7.60;100.00;96700.53;4981277;28;20180;-64
2022/09/17 19:32:01;;;;;;;6.30;6.00;;;;;;;7.60;100.00;96706.53;4986791;28;20208;-64
2022/09/17 19:34:26;;;;;;;9.77;9.27;;;;;;;7.64;100.00;96710.31;4981507;28;20658;-66
2022/09/17 19:36:51;;;;;;;8.93;8.53;;;;;;;7.70;100.00;96704.28;4980229;28;20528;-65
2022/09/17 19:39:17;;;;;;;10.73;9.90;;;;;;;7.76;100.00;96705.25;4981271;28;20203;-65
2022/09/17 19:41:42;;;;;;;7.23;6.83;;;;;;;7.87;100.00;96712.38;4983948;28;20188;-64
2022/09/17 19:44:08;;;;;;;7.40;6.77;;;;;;;7.96;100.00;96711.16;4986662;28;20196;-65
2022/09/17 19:46:33;;;;;;;7.60;7.07;;;;;;;7.97;100.00;96715.31;4978245;28;20185;-65
2022/09/17 19:48:59;;;;;;;7.03;6.60;;;;;;;8.00;100.00;96714.91;4979135;28;20181;-66
2022/09/17 19:51:28;;;;;;;8.13;7.50;;;;;;;7.98;100.00;96708.31;4987189;28;20201;-66
2022/09/17 19:53:54;;;;;;;8.03;6.83;;;;;;;7.92;100.00;96723.00;4976968;28;20680;-65
2022/09/17 19:56:22;;;;;;;8.83;8.33;;;;;;;7.89;100.00;96729.44;4980162;28;20184;-64
2022/09/17 19:58:48;;;;;;;8.27;7.67;;;;;;;7.83;100.00;96722.47;4988364;28;20525;-64
2022/09/17 20:01:14;;;;;;;8.47;6.67;;;;;;;7.76;100.00;96731.31;4975002;28;20228;-63
2022/09/17 20:03:42;;;;;;;6.83;6.40;;;;;;;7.76;100.00;96741.75;4984595;28;20180;-64
2022/09/17 20:06:10;;;;;;;5.93;5.63;;;;;;;7.76;100.00;96745.16;4978925;28;20656;-64
2022/09/17 20:08:36;;;;;;;6.40;5.90;;;;;;;7.82;100.00;96735.72;4975093;28;20176;-64
2022/09/17 20:11:08;;;;;;;7.43;6.73;;;;;;;7.76;100.00;96737.34;4990189;28;20240;-65
2022/09/17 20:13:34;;;;;;;7.03;6.63;;;;;;;7.77;100.00;96751.19;4992673;28;20180;-64
2022/09/17 20:16:09;;;;;;;5.27;4.97;;;;;;;7.87;100.00;96741.09;4992987;28;20656;-65
2022/09/17 20:18:35;;;;;;;7.73;7.23;;;;;;;7.92;100.00;96746.47;4989880;28;20511;-64
2022/09/17 20:21:06;;;;;;;6.87;6.37;;;;;;;7.97;100.00;96745.88;4980290;28;20271;-65
2022/09/17 20:23:32;;;;;;;7.83;7.30;;;;;;;8.06;100.00;96744.59;4992148;28;20508;-66
2022/09/17 20:25:57;;;;;;;8.37;7.77;;;;;;;8.02;100.00;96753.88;4975130;28;20187;-65
2022/09/17 20:28:22;;;;;;;7.50;7.00;;;;;;;7.92;100.00;96749.88;4993280;28;20547;-66
2022/09/17 20:30:48;;;;;;;7.43;6.90;;;;;;;7.99;100.00;96751.66;4992388;28;20200;-66
2022/09/17 20:33:14;;;;;;;8.27;7.77;;;;;;;7.97;100.00;96751.09;4992439;28;20179;-65
2022/09/17 20:35:39;;;;;;;8.77;8.17;;;;;;;7.88;100.00;96746.09;4993412;28;20641;-65
2022/09/17 20:38:05;;;;;;;9.47;8.63;;;;;;;7.80;100.00;96756.00;4992771;28;20184;-66
2022/09/17 20:40:30;;;;;;;8.77;8.03;;;;;;;7.73;100.00;96747.41;4993151;28;20238;-65
2022/09/17 20:42:55;;;;;;;9.17;8.43;;;;;;;7.72;100.00;96740.59;4989004;28;20197;-65
2022/09/17 20:45:21;;;;;;;9.60;8.87;;;;;;;7.70;100.00;96726.94;4990903;28;20541;-65
2022/09/17 20:47:49;;;;;;;8.60;8.07;;;;;;;7.66;100.00;96749.25;4989688;28;20199;-66
2022/09/17 20:50:14;;;;;;;9.20;8.63;;;;;;;7.69;100.00;96746.25;4979718;28;20712;-66
2022/09/17 20:52:39;;;;;;;9.47;8.97;;;;;;;7.69;100.00;96744.41;4984908;28;20187;-65
2022/09/17 20:55:05;;;;;;;8.77;8.03;;;;;;;7.74;100.00;96752.44;4992436;28;20235;-65
2022/09/17 20:57:30;;;;;;;7.97;7.30;;;;;;;7.76;100.00;96758.22;4992945;28;20195;-65
2022/09/17 20:59:59;;;;;;;7.67;7.07;;;;;;;7.80;100.00;96763.84;4983496;28;20177;-66
2022/09/17 21:02:25;;;;;;;8.07;7.47;;;;;;;7.81;100.00;96760.19;4986143;28;20280;-66
2022/09/17 21:04:52;;;;;;;7.47;7.07;;;;;;;7.90;100.00;96751.13;4976335;28;20192;-66
2022/09/17 21:07:17;;;;;;;7.40;6.87;;;;;;;7.94;100.00;96754.91;4989699;28;20196;-66
2022/09/17 21:09:43;;;;;;;8.53;6.20;;;;;;;7.98;100.00;96755.28;4987243;28;20671;-66
2022/09/17 21:12:08;;;;;;;7.43;6.93;;;;;;;8.00;100.00;96753.25;4992282;28;20247;-67
2022/09/17 21:14:34;;;;;;;8.50;7.90;;;;;;;8.04;100.00;96754.44;4992044;28;20188;-66
2022/09/17 21:16:59;;;;;;;8.57;7.87;;;;;;;8.01;100.00;96775.75;4992763;28;20188;-65
2022/09/17 21:19:25;;;;;;;9.83;9.33;;;;;;;7.92;100.00;96790.84;4991690;28;20192;-65
2022/09/17 21:21:53;;;;;;;14.10;9.97;;;;;;;7.67;100.00;96793.38;4972210;28;20532;-66
2022/09/17 21:24:19;;;;;;;9.33;8.40;;;;;;;7.71;100.00;96797.19;4973896;28;20188;-64
2022/09/17 21:26:44;;;;;;;9.60;8.90;;;;;;;7.86;100.00;96789.06;4991080;28;20194;-66
2022/09/17 21:29:10;;;;;;;8.37;7.87;;;;;;;7.86;100.00;96797.69;4991639;28;20211;-65
2022/09/17 21:31:36;;;;;;;9.17;8.37;;;;;;;7.99;100.00;96807.28;4977056;28;20561;-66
2022/09/17 21:34:08;;;;;;;8.73;8.10;;;;;;;8.05;100.00;96813.47;4984761;28;20644;-66
2022/09/17 21:36:36;;;;;;;9.17;8.37;;;;;;;8.17;100.00;96794.31;4973961;28;20304;-64
2022/09/17 21:39:05;;;;;;;9.17;8.50;;;;;;;8.19;100.00;96788.91;4973854;28;20561;-63
2022/09/17 21:41:30;;;;;;;20.60;19.07;;;;;;;8.15;100.00;96778.06;4974200;28;20185;-64
2022/09/17 21:43:57;;;;;;;9.00;8.27;;;;;;;8.27;100.00;96780.78;4974616;28;20633;-64
2022/09/17 21:46:24;;;;;;;10.50;9.40;;;;;;;8.32;100.00;96783.59;4974382;28;20188;-64
2022/09/17 21:48:52;;;;;;;10.73;10.13;;;;;;;8.44;100.00;96783.72;4990186;28;20204;-64
2022/09/17 21:51:24;;;;;;;10.47;9.37;;;;;;;8.38;100.00;96781.94;4974120;28;20210;-65
2022/09/17 21:53:51;;;;;;;9.93;9.10;;;;;;;8.39;100.00;96780.94;4981551;28;20195;-65
2022/09/17 21:56:18;;;;;;;9.33;8.43;;;;;;;8.38;100.00;96781.94;4986925;28;20192;-64
2022/09/17 21:58:45;;;;;;;11.30;10.30;;;;;;;8.40;100.00;96788.56;4991317;28;20188;-65
2022/09/17 22:01:13;;;;;;;11.10;10.40;;;;;;;8.43;100.00;96790.75;4981474;28;20208;-64
2022/09/17 22:03:39;;;;;;;11.00;10.00;;;;;;;8.38;100.00;96792.38;4973959;28;20203;-64
2022/09/17 22:06:08;;;;;;;13.80;12.87;;;;;;;8.34;100.00;96787.59;4972293;28;20196;-64
2022/09/17 22:08:34;;;;;;;10.83;9.97;;;;;;;8.34;100.00;96790.22;4973776;28;20698;-64
2022/09/17 22:11:10;;;;;;;14.03;12.87;;;;;;;8.36;100.00;96784.75;4973068;28;20275;-64
2022/09/17 22:13:36;;;;;;;13.50;12.60;;;;;;;8.31;100.00;96787.22;4974054;28;20656;-64
2022/09/17 22:16:03;;;;;;;15.30;14.40;;;;;;;8.31;100.00;96782.00;4977935;28;20188;-64
2022/09/17 22:18:30;;;;;;;17.73;16.50;;;;;;;8.21;100.00;96785.03;4993325;28;20544;-64
2022/09/17 22:20:55;;;;;;;13.77;12.87;;;;;;;8.25;100.00;96783.59;4992903;28;20682;-65
2022/09/17 22:23:22;;;;;;;15.63;14.47;;;;;;;8.18;100.00;96782.88;4972233;28;20208;-64
2022/09/17 22:25:47;;;;;;;12.00;11.30;;;;;;;8.11;100.00;96778.69;4973949;28;20238;-65
2022/09/17 22:28:14;;;;;;;11.10;9.83;;;;;;;8.10;100.00;96779.69;4973998;28;20279;-64
2022/09/17 22:30:42;;;;;;;12.03;8.73;;;;;;;8.12;100.00;96778.50;4973746;28;20211;-65
2022/09/17 22:33:08;;;;;;;9.03;8.13;;;;;;;8.08;100.00;96769.47;4977712;28;20661;-64
2022/09/17 22:35:33;;;;;;;10.40;9.40;;;;;;;8.12;100.00;96780.31;4992794;28;20207;-66
2022/09/17 22:37:59;;;;;;;13.27;12.17;;;;;;;8.09;100.00;96783.31;4992601;28;20187;-64
2022/09/17 22:40:24;;;;;;;11.13;9.20;;;;;;;8.08;100.00;96777.28;4992853;28;20184;-64